Terminal Aerodrome Forecast
Issued by NWS Caribou, ME

Home | Current Version | Previous Version | Text Only | Print | Product List | Glossary On
Versions: 1 2 3 4 5 6 7 8 9 10 11 12 13 14
000
FTUS41 KCAR 040520
TAFBGR
TAF
KBGR 040520Z 0406/0506 19006KT P6SM VCSH SCT005 BKN070 OVC100
     FM040700 15004KT 5SM BR BKN005
     FM041300 15004KT P6SM BKN050
     FM041800 21006KT 5SM -SHRA OVC090=

USA.gov is the U.S. government's official web portal to all federal, state and local government web resources and services.